createdAt,value
2023-01-21T00:03:34.892Z,18.9
2023-01-21T00:08:57.675Z,18.8
2023-01-21T00:19:11.195Z,18.5
2023-01-21T00:24:34.044Z,18.4
2023-01-21T00:29:56.174Z,18.3
2023-01-21T00:35:21.241Z,18.4
2023-01-21T00:40:43.451Z,18.3
2023-01-21T00:46:06.481Z,18.2
2023-01-21T00:50:57.693Z,18.1
2023-01-21T00:56:05.095Z,17.9
2023-01-21T01:01:13.657Z,17.8
2023-01-21T01:06:36.351Z,17.8
2023-01-21T01:11:59.711Z,17.9
2023-01-21T01:17:06.936Z,17.9
2023-01-21T01:22:29.651Z,17.9
2023-01-21T01:27:52.792Z,17.7
2023-01-21T01:33:15.808Z,17.7
2023-01-21T01:38:38.390Z,17.8
2023-01-21T01:43:45.651Z,17.8
2023-01-21T01:49:08.640Z,17.7
2023-01-21T01:54:15.974Z,17.6
2023-01-21T01:59:38.710Z,17.5
2023-01-21T02:05:02.035Z,17.6
2023-01-21T02:10:24.367Z,17.6
2023-01-21T02:15:46.694Z,17.5
2023-01-21T02:21:09.896Z,17.6
2023-01-21T02:26:16.406Z,17.6
2023-01-21T02:31:43.951Z,17.5
2023-01-21T02:36:50.611Z,17.4
2023-01-21T02:42:13.531Z,17.5
2023-01-21T02:47:36.804Z,17.4
2023-01-21T02:53:00.099Z,17.4
2023-01-21T02:58:07.469Z,17.4
2023-01-21T03:03:14.911Z,17.4
2023-01-21T03:08:37.331Z,17.4
2023-01-21T03:13:44.011Z,17.4
2023-01-21T03:19:07.165Z,17.4
2023-01-21T03:24:29.797Z,17.4
2023-01-21T03:29:52.504Z,17.4
2023-01-21T03:35:15.801Z,17.4
2023-01-21T03:40:22.534Z,17.4
2023-01-21T03:45:29.562Z,17.4
2023-01-21T03:50:37.263Z,17.4
2023-01-21T03:55:59.808Z,17.3
2023-01-21T04:01:22.270Z,17.3
2023-01-21T04:06:29.991Z,17.3
2023-01-21T04:11:37.180Z,17.3
2023-01-21T04:17:03.794Z,17.2
2023-01-21T04:21:56.316Z,17.3
2023-01-21T04:27:21.742Z,17.3
2023-01-21T04:32:44.272Z,17.2
2023-01-21T04:38:06.597Z,17.3
2023-01-21T04:43:29.282Z,17.2
2023-01-21T04:48:51.579Z,17.2
2023-01-21T04:54:14.100Z,17.2
2023-01-21T04:59:22.370Z,17.1
2023-01-21T05:04:30.028Z,17.1
2023-01-21T05:09:53.579Z,17.1
2023-01-21T05:15:15.956Z,17.1
2023-01-21T05:20:23.546Z,17.1
2023-01-21T05:25:46.362Z,17.1
2023-01-21T05:31:09.356Z,17.1
2023-01-21T05:41:24.735Z,17.1
2023-01-21T05:46:49.255Z,17.1
2023-01-21T05:52:12.274Z,16.9
2023-01-21T06:02:56.756Z,17.1
2023-01-21T06:08:03.914Z,17.1
2023-01-21T06:13:26.938Z,16.9
2023-01-21T06:18:34.509Z,16.9
2023-01-21T06:23:57.342Z,16.9
2023-01-21T06:29:04.639Z,16.9
2023-01-21T06:39:36.446Z,16.9
2023-01-21T06:45:00.198Z,16.8
2023-01-21T06:50:33.367Z,16.9
2023-01-21T06:55:40.907Z,16.8
2023-01-21T07:01:03.484Z,16.8
2023-01-21T07:06:26.674Z,16.8
2023-01-21T07:11:34.227Z,16.9
2023-01-21T07:16:42.631Z,16.9
2023-01-21T07:21:49.763Z,16.7
2023-01-21T07:27:13.141Z,16.6
2023-01-21T07:32:39.031Z,16.5
2023-01-21T07:38:01.159Z,16.4
2023-01-21T07:43:23.294Z,16.4
2023-01-21T07:48:48.316Z,16.3
2023-01-21T07:54:11.164Z,16.4
2023-01-21T07:59:33.671Z,16.5
2023-01-21T08:04:56.695Z,16.6
2023-01-21T08:10:19.349Z,16.6
2023-01-21T08:15:41.980Z,16.4
2023-01-21T08:21:04.835Z,16.4
2023-01-21T08:26:27.777Z,16.3
2023-01-21T08:31:50.152Z,16.2
2023-01-21T08:37:13.336Z,16.2
2023-01-21T08:42:36.234Z,16.2
2023-01-21T08:47:58.885Z,16.3
2023-01-21T08:53:22.366Z,16.6
2023-01-21T08:58:29.679Z,16.6
2023-01-21T09:03:37.422Z,16.6
2023-01-21T09:09:00.250Z,16.5
2023-01-21T09:14:22.879Z,16.4
2023-01-21T09:19:46.485Z,16.4
2023-01-21T09:25:09.448Z,16.3
2023-01-21T09:30:32.421Z,16.4
2023-01-21T09:35:11.847Z,16.6
2023-01-21T09:40:34.610Z,16.6
2023-01-21T09:45:57.813Z,16.6
2023-01-21T09:51:20.623Z,16.6
2023-01-21T09:56:44.116Z,16.4
2023-01-21T10:02:08.487Z,16.4
2023-01-21T10:07:31.634Z,16.3
2023-01-21T10:12:54.741Z,16.3
2023-01-21T10:18:17.672Z,16.4
2023-01-21T10:23:42.270Z,16.4
2023-01-21T10:29:05.678Z,16.4
2023-01-21T10:34:13.574Z,16.3
2023-01-21T10:39:23.028Z,16.3
2023-01-21T10:44:46.778Z,16.3
2023-01-21T10:50:11.111Z,16.3
2023-01-21T10:55:34.677Z,16.4
2023-01-21T11:00:59.120Z,16.6
2023-01-21T11:06:06.943Z,16.6
2023-01-21T11:11:29.872Z,16.5
2023-01-21T11:16:53.646Z,16.4
2023-01-21T11:22:19.306Z,16.3
2023-01-21T11:27:41.417Z,16.3
2023-01-21T11:32:57.607Z,16.3
2023-01-21T11:38:04.768Z,16.4
2023-01-21T11:43:27.813Z,16.5
2023-01-21T11:48:50.931Z,16.4
2023-01-21T11:54:14.298Z,16.4
2023-01-21T11:59:36.846Z,16.4
2023-01-21T12:04:59.874Z,16.3
2023-01-21T12:10:22.816Z,16.3
2023-01-21T12:15:47.382Z,16.4
2023-01-21T12:21:10.784Z,16.5
2023-01-21T12:26:33.159Z,16.4
2023-01-21T12:31:41.059Z,16.4
2023-01-21T12:37:04.018Z,16.4
2023-01-21T12:42:27.005Z,16.3
2023-01-21T12:47:50.568Z,16.3
2023-01-21T12:53:14.405Z,16.4
2023-01-21T12:58:38.600Z,16.5
2023-01-21T13:04:01.715Z,16.4
2023-01-21T13:09:28.033Z,16.4
2023-01-21T13:14:50.704Z,16.3
2023-01-21T13:19:58.485Z,16.3
2023-01-21T13:25:06.179Z,16.2
2023-01-21T13:30:30.657Z,16.1
2023-01-21T13:35:53.978Z,16.1
2023-01-21T13:41:16.252Z,16.3
2023-01-21T13:46:39.589Z,16.4
2023-01-21T13:52:02.281Z,16.4
2023-01-21T13:57:24.708Z,16.4
2023-01-21T14:02:48.144Z,16.3
2023-01-21T14:07:56.737Z,16.3
2023-01-21T14:13:19.515Z,16.2
2023-01-21T14:18:42.746Z,16.1
2023-01-21T14:23:49.876Z,16.1
2023-01-21T14:29:14.072Z,16.3
2023-01-21T14:34:37.139Z,16.4
2023-01-21T14:40:00.034Z,16.4
2023-01-21T14:45:25.605Z,16.3
2023-01-21T14:50:48.487Z,16.3
2023-01-21T14:56:11.600Z,16.3
2023-01-21T15:01:46.936Z,16.1
2023-01-21T15:07:11.161Z,16.1
2023-01-21T15:12:36.638Z,16.1
2023-01-21T15:18:01.223Z,16.3
2023-01-21T15:23:27.080Z,16.4
2023-01-21T15:28:48.854Z,16.4
2023-01-21T15:34:21.129Z,16.4
2023-01-21T15:39:44.266Z,16.4
2023-01-21T15:45:07.733Z,16.3
2023-01-21T15:50:40.569Z,16.3
2023-01-21T15:56:03.838Z,16.2
2023-01-21T16:01:26.058Z,16.1
2023-01-21T16:06:51.981Z,16.2
2023-01-21T16:12:14.676Z,16.4
2023-01-21T16:17:38.938Z,16.4
2023-01-21T16:23:03.943Z,16.4
2023-01-21T16:27:58.654Z,16.3
2023-01-21T16:33:07.395Z,16.3
2023-01-21T16:38:30.618Z,16.3
2023-01-21T16:43:53.269Z,16.2
2023-01-21T16:49:00.237Z,16.1
2023-01-21T16:54:23.730Z,16.1
2023-01-21T16:59:47.635Z,16.3
2023-01-21T17:05:10.806Z,16.4
2023-01-21T17:10:18.578Z,16.4
2023-01-21T17:15:42.105Z,16.3
2023-01-21T17:21:07.072Z,16.3
2023-01-21T17:26:30.814Z,16.3
2023-01-21T17:31:39.773Z,16.2
2023-01-21T17:36:49.497Z,16.1
2023-01-21T17:42:13.698Z,16.1
2023-01-21T17:47:54.236Z,16.3
2023-01-21T17:53:25.549Z,16.3
2023-01-21T17:58:54.963Z,16.3
2023-01-21T18:04:22.450Z,16.3
2023-01-21T18:09:18.083Z,16.3
2023-01-21T18:14:53.360Z,16.2
2023-01-21T18:20:19.927Z,16.1
2023-01-21T18:25:45.891Z,16.1
2023-01-21T18:31:13.194Z,16.1
2023-01-21T18:36:25.508Z,16.3
2023-01-21T18:41:36.445Z,16.4
2023-01-21T18:47:03.771Z,16.4
2023-01-21T18:52:29.811Z,16.3
2023-01-21T18:57:54.641Z,16.2
2023-01-21T19:03:22.658Z,16.2
2023-01-21T19:08:49.854Z,16.1
2023-01-21T19:14:18.801Z,16.1
2023-01-21T19:19:51.029Z,16.1
2023-01-21T19:25:22.276Z,16.3
2023-01-21T19:30:55.800Z,16.4
2023-01-21T19:36:26.889Z,16.3
2023-01-21T19:41:45.233Z,16.3
2023-01-21T19:47:24.946Z,16.2
2023-01-21T19:52:42.527Z,16.1
2023-01-21T19:58:15.453Z,16.1
2023-01-21T20:03:59.571Z,16
2023-01-21T20:09:29.236Z,16.1
2023-01-21T20:14:44.564Z,16.4
2023-01-21T20:20:11.917Z,16.6
2023-01-21T20:25:56.817Z,16.6
2023-01-21T20:31:42.929Z,16.6
2023-01-21T20:37:08.544Z,16.8
2023-01-21T20:42:33.293Z,16.8
2023-01-21T20:47:54.775Z,16.7
2023-01-21T20:53:18.495Z,16.6
2023-01-21T20:58:43.489Z,16.7
2023-01-21T21:03:56.243Z,16.7
2023-01-21T21:09:22.003Z,16.6
2023-01-21T21:14:30.651Z,16.6
2023-01-21T21:19:54.057Z,16.8
2023-01-21T21:25:02.516Z,16.8
2023-01-21T21:30:26.763Z,16.7
2023-01-21T21:35:50.740Z,16.6
2023-01-21T21:41:14.163Z,16.8
2023-01-21T21:46:37.577Z,16.8
2023-01-21T21:51:45.865Z,16.8
2023-01-21T21:57:08.283Z,16.7
2023-01-21T22:02:31.503Z,16.7
2023-01-21T22:07:54.448Z,16.8
2023-01-21T22:13:16.850Z,16.8
2023-01-21T22:18:40.736Z,16.8
2023-01-21T22:24:04.716Z,16.6
2023-01-21T22:29:27.308Z,16.6
2023-01-21T22:34:52.082Z,16.8
2023-01-21T22:40:14.928Z,16.8
2023-01-21T22:45:38.704Z,16.7
2023-01-21T22:50:46.127Z,16.6
2023-01-21T22:55:53.328Z,16.7
2023-01-21T23:01:22.557Z,16.8
2023-01-21T23:06:46.238Z,16.8
2023-01-21T23:12:10.280Z,16.6
2023-01-21T23:17:02.392Z,16.6
2023-01-21T23:22:25.147Z,16.6
2023-01-21T23:27:48.132Z,16.7
2023-01-21T23:32:40.676Z,16.6
2023-01-21T23:38:05.970Z,16.6
2023-01-21T23:43:28.097Z,16.5
2023-01-21T23:48:50.689Z,16.5
2023-01-21T23:54:14.093Z,16.6
2023-01-21T23:59:36.855Z,16.6
